createdAt,value
2022-08-05T00:04:57.535Z,65.97
2022-08-05T00:10:00.283Z,66.25
2022-08-05T00:15:54.261Z,66.26
2022-08-05T00:20:28.933Z,66.45
2022-08-05T00:25:45.324Z,66.32
2022-08-05T00:30:52.070Z,66.26
2022-08-05T00:36:16.008Z,66.54
2022-08-05T00:41:51.675Z,66.86
2022-08-05T00:47:02.129Z,67.04
2022-08-05T00:52:08.207Z,66.99
2022-08-05T00:57:10.612Z,67.14
2022-08-05T01:02:13.299Z,67.15
2022-08-05T01:07:19.997Z,67.40
2022-08-05T01:12:25.278Z,67.51
2022-08-05T01:17:44.001Z,67.61
2022-08-05T01:23:13.571Z,67.76
2022-08-05T01:28:32.399Z,67.75
2022-08-05T01:33:48.914Z,67.74
2022-08-05T01:39:00.404Z,67.88
2022-08-05T01:44:06.623Z,68.07
2022-08-05T01:49:22.816Z,68.13
2022-08-05T01:54:52.821Z,68.16
2022-08-05T02:00:00.005Z,68.30
2022-08-05T02:05:11.755Z,68.34
2022-08-05T02:10:17.506Z,68.51
2022-08-05T02:15:31.194Z,68.43
2022-08-05T02:20:51.318Z,68.37
2022-08-05T02:25:57.839Z,68.72
2022-08-05T02:31:14.642Z,68.79
2022-08-05T02:36:23.215Z,69.01
2022-08-05T02:41:43.172Z,69.02
2022-08-05T02:47:00.983Z,69.17
2022-08-05T02:52:09.053Z,69.28
2022-08-05T02:58:20.175Z,69.32
2022-08-05T03:02:44.018Z,69.37
2022-08-05T03:08:01.056Z,69.62
2022-08-05T03:13:18.360Z,69.79
2022-08-05T03:18:24.642Z,70.10
2022-08-05T03:23:35.205Z,70.22
2022-08-05T03:28:41.916Z,70.28
2022-08-05T03:33:49.288Z,70.33
2022-08-05T03:38:54.820Z,70.58
2022-08-05T03:44:08.731Z,70.66
2022-08-05T03:49:15.016Z,70.60
2022-08-05T03:55:51.688Z,70.54
2022-08-05T04:00:04.654Z,70.84
2022-08-05T04:05:10.391Z,71.19
2022-08-05T04:10:13.318Z,71.29
2022-08-05T04:15:20.332Z,71.33
2022-08-05T04:20:28.609Z,70.16
2022-08-05T04:25:57.899Z,69.23
2022-08-05T04:30:54.819Z,68.39
2022-08-05T04:36:16.596Z,67.96
2022-08-05T04:41:19.338Z,66.99
2022-08-05T04:46:27.783Z,66.52
2022-08-05T04:51:32.772Z,65.99
2022-08-05T04:56:37.359Z,65.74
2022-08-05T05:02:07.155Z,65.83
2022-08-05T05:07:03.461Z,66.15
2022-08-05T05:12:06.426Z,66.18
2022-08-05T05:17:10.880Z,66.24
2022-08-05T05:22:24.597Z,66.48
2022-08-05T05:27:41.311Z,63.02
2022-08-05T05:32:46.226Z,60.96
2022-08-05T05:37:59.899Z,56.58
2022-08-05T05:43:08.689Z,52.01
2022-08-05T05:48:12.012Z,48.35
2022-08-05T05:53:22.741Z,45.24
2022-08-05T05:58:31.856Z,44.11
2022-08-05T06:03:53.853Z,42.88
2022-08-05T06:09:00.760Z,42.44
2022-08-05T06:14:04.340Z,43.54
2022-08-05T06:19:08.203Z,43.48
2022-08-05T06:24:12.697Z,44.89
2022-08-05T06:29:25.503Z,45.44
2022-08-05T06:34:43.280Z,46.77
2022-08-05T06:39:50.964Z,47.76
2022-08-05T06:44:53.785Z,48.61
2022-08-05T06:50:00.211Z,49.34
2022-08-05T06:55:06.721Z,50.31
2022-08-05T07:00:10.457Z,50.85
2022-08-05T07:05:19.558Z,50.24
2022-08-05T07:10:32.499Z,48.79
2022-08-05T07:16:01.566Z,47.47
2022-08-05T07:21:09.074Z,45.43
2022-08-05T07:26:13.385Z,44.71
2022-08-05T07:31:19.395Z,43.03
2022-08-05T07:36:43.647Z,42.49
2022-08-05T07:42:09.441Z,41.73
2022-08-05T07:47:11.798Z,42.68
2022-08-05T07:52:21.898Z,42.21
2022-08-05T07:57:58.858Z,40.00
2022-08-05T08:03:13.578Z,40.61
2022-08-05T08:08:19.880Z,41.36
2022-08-05T08:13:29.407Z,40.95
2022-08-05T08:18:32.753Z,40.53
2022-08-05T08:24:01.883Z,40.55
2022-08-05T08:29:09.763Z,39.25
2022-08-05T08:34:30.304Z,39.74
2022-08-05T08:39:37.173Z,39.25
2022-08-05T08:45:18.096Z,39.21
2022-08-05T08:50:30.381Z,39.36
2022-08-05T08:56:04.250Z,39.80
2022-08-05T09:00:58.771Z,39.93
2022-08-05T09:06:08.416Z,39.74
2022-08-05T09:11:15.631Z,38.94
2022-08-05T09:16:21.858Z,39.19
2022-08-05T09:22:23.367Z,39.12
2022-08-05T09:26:58.782Z,38.75
2022-08-05T09:32:46.159Z,37.99
2022-08-05T09:38:17.763Z,38.15
2022-08-05T09:42:54.387Z,38.34
2022-08-05T09:47:58.002Z,38.31
2022-08-05T09:53:02.195Z,38.59
2022-08-05T09:58:14.367Z,38.14
2022-08-05T10:03:18.153Z,37.73
2022-08-05T10:08:37.571Z,37.70
2022-08-05T10:13:45.676Z,37.79
2022-08-05T10:18:51.454Z,37.51
2022-08-05T10:23:59.489Z,38.02
2022-08-05T10:29:03.458Z,38.15
2022-08-05T10:34:08.213Z,38.02
2022-08-05T10:39:24.595Z,37.79
2022-08-05T10:44:45.030Z,37.74
2022-08-05T10:50:31.692Z,37.50
2022-08-05T10:56:03.700Z,37.41
2022-08-05T11:01:03.216Z,37.48
2022-08-05T11:06:15.974Z,37.34
2022-08-05T11:11:51.987Z,37.19
2022-08-05T11:17:53.339Z,36.78
2022-08-05T11:22:53.654Z,36.75
2022-08-05T11:28:17.708Z,36.49
2022-08-05T11:33:45.951Z,36.29
2022-08-05T11:38:51.768Z,36.39
2022-08-05T11:44:21.504Z,36.78
2022-08-05T11:49:42.992Z,36.12
2022-08-05T11:54:54.919Z,36.09
2022-08-05T11:59:58.186Z,35.43
2022-08-05T12:05:07.344Z,35.31
2022-08-05T12:10:22.960Z,35.55
2022-08-05T12:15:38.338Z,35.51
2022-08-05T12:20:42.818Z,35.87
2022-08-05T12:25:56.678Z,35.25
2022-08-05T12:31:02.467Z,34.44
2022-08-05T12:36:08.558Z,34.70
2022-08-05T12:41:21.240Z,34.31
2022-08-05T12:46:38.269Z,34.61
2022-08-05T12:52:13.650Z,34.32
2022-08-05T12:57:19.063Z,33.78
2022-08-05T13:02:30.367Z,33.98
2022-08-05T13:07:57.171Z,33.77
2022-08-05T13:12:58.524Z,33.85
2022-08-05T13:18:02.791Z,33.88
2022-08-05T13:23:07.247Z,34.43
2022-08-05T13:28:10.618Z,33.99
2022-08-05T13:34:21.665Z,34.12
2022-08-05T13:38:42.272Z,33.43
2022-08-05T13:43:54.726Z,33.39
2022-08-05T13:49:00.568Z,33.78
2022-08-05T13:54:12.808Z,33.92
2022-08-05T13:59:19.977Z,33.71
2022-08-05T14:04:43.302Z,33.40
2022-08-05T14:09:53.723Z,33.40
2022-08-05T14:14:56.693Z,32.78
2022-08-05T14:20:06.795Z,32.88
2022-08-05T14:25:19.220Z,32.75
2022-08-05T14:30:26.603Z,33.00
2022-08-05T14:35:36.232Z,32.36
2022-08-05T14:40:51.878Z,32.91
2022-08-05T14:45:54.641Z,32.83
2022-08-05T14:50:57.994Z,32.74
2022-08-05T14:56:00.328Z,32.78
2022-08-05T15:01:02.699Z,32.87
2022-08-05T15:06:12.796Z,33.39
2022-08-05T15:11:17.539Z,33.32
2022-08-05T15:16:20.362Z,33.60
2022-08-05T15:21:27.911Z,33.60
2022-08-05T15:26:34.915Z,34.30
2022-08-05T15:31:37.965Z,33.47
2022-08-05T15:36:40.368Z,33.66
2022-08-05T15:41:56.034Z,33.40
2022-08-05T15:47:01.685Z,34.36
2022-08-05T15:52:13.117Z,34.46
2022-08-05T15:57:26.560Z,34.88
2022-08-05T16:02:36.492Z,34.97
2022-08-05T16:07:38.590Z,35.42
2022-08-05T16:12:49.120Z,36.22
2022-08-05T16:18:12.582Z,37.92
2022-08-05T16:23:17.027Z,37.94
2022-08-05T16:28:19.294Z,39.12
2022-08-05T16:33:21.644Z,39.54
2022-08-05T16:38:25.638Z,39.44
2022-08-05T16:43:32.020Z,39.88
2022-08-05T16:48:35.248Z,40.64
2022-08-05T16:59:08.027Z,42.20
2022-08-05T17:04:15.100Z,42.49
2022-08-05T17:09:20.254Z,42.93
2022-08-05T17:14:37.650Z,43.66
2022-08-05T17:19:45.678Z,43.98
2022-08-05T17:24:57.981Z,45.38
2022-08-05T17:30:19.062Z,46.17
2022-08-05T17:36:08.841Z,46.76
2022-08-05T17:41:04.748Z,47.25
2022-08-05T17:46:17.590Z,48.13
2022-08-05T17:51:22.285Z,48.52
2022-08-05T17:56:28.244Z,48.80
2022-08-05T18:01:47.246Z,49.14
2022-08-05T18:06:54.403Z,49.94
2022-08-05T18:12:05.154Z,50.71
2022-08-05T18:18:01.167Z,51.39
2022-08-05T18:22:36.387Z,52.03
2022-08-05T18:27:55.293Z,52.94
2022-08-05T18:33:01.670Z,53.94
2022-08-05T18:38:05.180Z,54.50
2022-08-05T18:43:09.181Z,55.09
2022-08-05T18:48:30.906Z,55.37
2022-08-05T18:53:42.984Z,55.80
2022-08-05T18:58:54.936Z,56.46
2022-08-05T19:04:05.657Z,56.90
2022-08-05T19:09:39.126Z,57.16
2022-08-05T19:15:00.697Z,57.56
2022-08-05T19:20:11.316Z,58.28
2022-08-05T19:25:21.703Z,58.90
2022-08-05T19:30:34.154Z,58.45
2022-08-05T19:35:56.132Z,58.82
2022-08-05T19:41:02.140Z,59.04
2022-08-05T19:46:29.017Z,59.00
2022-08-05T19:52:09.128Z,59.08
2022-08-05T19:57:02.334Z,59.25
2022-08-05T20:02:09.745Z,59.46
2022-08-05T20:07:15.429Z,59.25
2022-08-05T20:12:20.661Z,59.01
2022-08-05T20:17:26.810Z,58.88
2022-08-05T20:22:31.588Z,58.61
2022-08-05T20:27:41.808Z,58.55
2022-08-05T20:32:47.150Z,58.22
2022-08-05T20:38:07.731Z,58.43
2022-08-05T20:43:12.825Z,58.90
2022-08-05T20:48:17.597Z,59.05
2022-08-05T20:53:37.249Z,59.35
2022-08-05T20:58:45.927Z,59.64
2022-08-05T21:03:51.011Z,60.01
2022-08-05T21:08:55.623Z,60.44
2022-08-05T21:14:01.339Z,60.77
2022-08-05T21:19:06.697Z,60.87
2022-08-05T21:24:15.414Z,61.33
2022-08-05T21:29:20.588Z,61.09
2022-08-05T21:34:31.759Z,60.56
2022-08-05T21:39:40.654Z,60.22
2022-08-05T21:44:47.459Z,60.03
2022-08-05T21:50:01.315Z,59.59
2022-08-05T21:55:07.914Z,59.30
2022-08-05T22:00:13.846Z,59.31
2022-08-05T22:05:18.385Z,59.35
2022-08-05T22:10:31.460Z,59.46
2022-08-05T22:16:00.956Z,59.57
2022-08-05T22:21:04.004Z,59.71
2022-08-05T22:26:27.527Z,59.96
2022-08-05T22:31:44.366Z,59.97
2022-08-05T22:36:50.967Z,60.38
2022-08-05T22:42:10.800Z,60.46
2022-08-05T22:47:29.933Z,60.46
2022-08-05T22:52:35.555Z,60.47
2022-08-05T22:57:42.101Z,60.60
2022-08-05T23:02:54.149Z,61.04
2022-08-05T23:07:58.949Z,61.22
2022-08-05T23:13:03.381Z,61.39
2022-08-05T23:18:15.790Z,61.72
2022-08-05T23:23:20.069Z,62.02
2022-08-05T23:28:29.156Z,62.47
2022-08-05T23:34:05.689Z,62.67
2022-08-05T23:38:58.445Z,63.04
2022-08-05T23:44:06.240Z,63.26
2022-08-05T23:49:16.993Z,63.32
2022-08-05T23:54:36.586Z,63.43
